TimeCDT,TemperatureF,Dew PointF,Humidity,Sea Level PressureIn,VisibilityMPH,Wind Direction,Wind SpeedMPH,Gust SpeedMPH,PrecipitationIn,Events,Conditions,WindDirDegrees,DateUTC
12:53 AM,48.0,41.0,77,30.16,10.0,SE,3.5,-,N/A,,Clear,140,2013-05-13 05:53:00
1:53 AM,43.0,37.9,82,30.15,10.0,Calm,Calm,-,N/A,,Clear,0,2013-05-13 06:53:00
2:53 AM,46.0,39.0,76,30.14,10.0,Calm,Calm,-,N/A,,Clear,0,2013-05-13 07:53:00
3:53 AM,46.0,39.9,79,30.13,10.0,Calm,Calm,-,N/A,,Clear,0,2013-05-13 08:53:00
4:53 AM,45.0,39.9,82,30.13,10.0,Calm,Calm,-,N/A,,Clear,0,2013-05-13 09:53:00
5:53 AM,44.1,39.9,85,30.13,10.0,Calm,Calm,-,N/A,,Clear,0,2013-05-13 10:53:00
6:53 AM,46.9,43.0,86,30.13,10.0,Calm,Calm,-,N/A,,Clear,0,2013-05-13 11:53:00
7:53 AM,55.0,43.0,64,30.13,10.0,Calm,Calm,-,N/A,,Clear,0,2013-05-13 12:53:00
8:53 AM,62.1,42.1,48,30.13,10.0,South,8.1,-,N/A,,Clear,190,2013-05-13 13:53:00
9:53 AM,66.9,41.0,39,30.12,10.0,South,11.5,-,N/A,,Clear,170,2013-05-13 14:53:00
10:53 AM,71.1,43.0,36,30.10,10.0,South,9.2,18.4,N/A,,Partly Cloudy,190,2013-05-13 15:53:00
11:53 AM,73.0,43.0,34,30.08,10.0,SSE,8.1,16.1,N/A,,Clear,160,2013-05-13 16:53:00
12:53 PM,75.9,45.0,33,30.06,10.0,South,11.5,-,N/A,,Clear,190,2013-05-13 17:53:00
1:53 PM,77.0,44.1,31,30.05,10.0,South,8.1,-,N/A,,Clear,180,2013-05-13 18:53:00
3:53 PM,80.1,44.1,28,30.00,10.0,South,12.7,-,N/A,,Clear,180,2013-05-13 20:53:00
4:53 PM,80.1,45.0,29,29.98,10.0,South,13.8,-,N/A,,Clear,190,2013-05-13 21:53:00
5:53 PM,79.0,46.9,32,29.96,10.0,South,16.1,24.2,N/A,,Clear,190,2013-05-13 22:53:00
7:53 PM,75.0,51.1,43,29.93,10.0,South,12.7,-,N/A,,Clear,180,2013-05-14 00:53:00
8:53 PM,71.1,52.0,51,29.92,10.0,South,10.4,-,N/A,,Clear,190,2013-05-14 01:53:00
9:53 PM,69.1,53.1,57,29.92,10.0,South,9.2,-,N/A,,Clear,190,2013-05-14 02:53:00
10:53 PM,68.0,54.0,61,29.91,10.0,South,9.2,-,N/A,,Clear,190,2013-05-14 03:53:00
11:53 PM,68.0,55.0,63,29.89,10.0,SSW,9.2,-,N/A,,Clear,200,2013-05-14 04:53:00